Terminal Aerodrome Forecast
Issued by NWS Jackson, KY

Home | Current Version | Previous Version | Text Only | Print | Product List | Glossary On
Versions: 1 2 3 4 5 6 7 8 9 10 11 12 13 14 15 16
000
FTUS43 KJKL 230335 AAC
TAFJKL
TAF AMD
KJKL 230335Z 2304/2324 VRB03KT P6SM SCT002 OVC150
      TEMPO 2304/2306 OVC002
     FM230600 VRB03KT P6SM OVC020
     FM231100 VRB04KT P6SM VCSH BKN080
     FM231800 22009KT P6SM BKN040
     FM232300 VRB05KT P6SM BKN100=

USA.gov is the U.S. government's official web portal to all federal, state and local government web resources and services.